createdAt,value
2022-10-24T00:00:59.047Z,9.70
2022-10-24T00:01:58.890Z,9.50
2022-10-24T00:02:59.099Z,10.60
2022-10-24T00:03:59.278Z,9.90
2022-10-24T00:04:59.078Z,9.60
2022-10-24T00:05:58.727Z,9.50
2022-10-24T00:06:59.051Z,8.90
2022-10-24T00:07:58.889Z,9.10
2022-10-24T00:08:58.808Z,9.00
2022-10-24T00:09:58.887Z,8.90
2022-10-24T00:10:58.798Z,9.50
2022-10-24T00:11:58.887Z,9.30
2022-10-24T00:12:59.369Z,9.30
2022-10-24T00:13:58.647Z,9.10
2022-10-24T00:14:59.366Z,9.10
2022-10-24T00:15:58.890Z,9.50
2022-10-24T00:16:59.050Z,10.40
2022-10-24T00:17:58.887Z,9.60
2022-10-24T00:19:00.010Z,10.30
2022-10-24T00:19:58.638Z,10.00
2022-10-24T00:20:58.738Z,10.00
2022-10-24T00:21:58.644Z,9.70
2022-10-24T00:22:59.047Z,10.20
2022-10-24T00:23:58.567Z,10.30
2022-10-24T00:24:59.049Z,11.10
2022-10-24T00:25:58.638Z,11.00
2022-10-24T00:26:58.729Z,10.30
2022-10-24T00:27:58.650Z,8.90
2022-10-24T00:28:58.727Z,10.40
2022-10-24T00:29:58.648Z,11.20
2022-10-24T00:30:59.049Z,10.70
2022-10-24T00:31:58.887Z,10.60
2022-10-24T00:33:00.012Z,11.50
2022-10-24T00:33:58.656Z,11.80
2022-10-24T00:34:58.568Z,11.30
2022-10-24T00:35:58.568Z,11.40
2022-10-24T00:36:58.448Z,10.60
2022-10-24T00:37:58.569Z,10.50
2022-10-24T00:39:00.725Z,10.60
2022-10-24T00:39:58.569Z,10.70
2022-10-24T00:40:59.050Z,11.30
2022-10-24T00:41:58.569Z,11.00
2022-10-24T00:42:58.760Z,10.70
2022-10-24T00:43:58.568Z,10.20
2022-10-24T00:44:58.484Z,10.80
2022-10-24T00:45:58.569Z,11.10
2022-10-24T00:47:19.527Z,11.00
2022-10-24T00:47:58.168Z,10.90
2022-10-24T00:48:58.406Z,10.50
2022-10-24T00:49:58.158Z,11.10
2022-10-24T00:50:58.727Z,10.70
2022-10-24T00:51:58.100Z,10.60
2022-10-24T00:52:58.731Z,9.90
2022-10-24T00:54:58.408Z,10.50
2022-10-24T00:55:58.567Z,10.50
2022-10-24T00:56:58.180Z,10.70
2022-10-24T00:57:58.015Z,10.10
2022-10-24T00:58:58.726Z,9.60
2022-10-24T00:59:58.247Z,9.20
2022-10-24T01:01:00.755Z,10.00
2022-10-24T01:01:58.008Z,10.30
2022-10-24T01:02:58.090Z,9.10
2022-10-24T01:03:58.249Z,10.40
2022-10-24T01:04:58.288Z,10.20
2022-10-24T01:05:58.247Z,10.30
2022-10-24T01:06:58.087Z,9.40
2022-10-24T01:07:58.256Z,9.90
2022-10-24T01:08:58.400Z,9.80
2022-10-24T01:09:57.927Z,10.00
2022-10-24T01:10:59.088Z,10.10
2022-10-24T01:11:57.928Z,9.50
2022-10-24T01:12:58.088Z,9.60
2022-10-24T01:13:57.926Z,9.00
2022-10-24T01:14:58.088Z,9.80
2022-10-24T01:15:57.927Z,10.20
2022-10-24T01:17:19.213Z,9.60
2022-10-24T01:17:58.000Z,9.50
2022-10-24T01:18:58.417Z,9.70
2022-10-24T01:19:58.247Z,9.20
2022-10-24T01:20:57.781Z,9.20
2022-10-24T01:21:57.927Z,9.80
2022-10-24T01:23:19.209Z,9.80
2022-10-24T01:23:57.929Z,9.80
2022-10-24T01:24:58.089Z,10.40
2022-10-24T01:25:57.681Z,9.50
2022-10-24T01:26:58.088Z,9.70
2022-10-24T01:27:57.690Z,9.40
2022-10-24T01:29:00.329Z,9.00
2022-10-24T01:29:57.688Z,9.70
2022-10-24T01:30:57.769Z,9.70
2022-10-24T01:31:57.689Z,10.00
2022-10-24T01:32:57.769Z,9.40
2022-10-24T01:33:57.927Z,9.40
2022-10-24T01:34:58.088Z,9.80
2022-10-24T01:35:57.691Z,8.40
2022-10-24T01:36:58.088Z,8.90
2022-10-24T01:37:57.681Z,8.40
2022-10-24T01:38:57.849Z,9.40
2022-10-24T01:39:57.448Z,8.90
2022-10-24T01:40:57.571Z,9.20
2022-10-24T01:41:57.607Z,8.80
2022-10-24T01:42:57.768Z,9.20
2022-10-24T01:43:57.947Z,9.10
2022-10-24T01:44:58.089Z,9.60
2022-10-24T01:45:57.680Z,8.60
2022-10-24T01:46:57.830Z,9.00
2022-10-24T01:47:57.609Z,8.30
2022-10-24T01:48:57.769Z,8.60
2022-10-24T01:49:57.608Z,9.60
2022-10-24T01:50:57.447Z,9.50
2022-10-24T01:51:57.608Z,8.70
2022-10-24T01:52:58.092Z,8.60
2022-10-24T01:53:57.612Z,9.00
2022-10-24T01:54:57.769Z,8.70
2022-10-24T01:55:57.610Z,8.90
2022-10-24T01:56:57.442Z,8.50
2022-10-24T01:57:57.362Z,9.10
2022-10-24T01:58:57.450Z,9.00
2022-10-24T01:59:57.291Z,8.80
2022-10-24T02:00:58.490Z,8.90
2022-10-24T02:01:57.610Z,9.40
2022-10-24T02:02:57.768Z,8.90
2022-10-24T02:03:57.608Z,9.10
2022-10-24T02:04:57.448Z,8.80
2022-10-24T02:05:57.281Z,9.00
2022-10-24T02:06:59.462Z,9.00
2022-10-24T02:07:57.091Z,8.90
2022-10-24T02:08:58.776Z,8.60
2022-10-24T02:09:57.609Z,8.70
2022-10-24T02:10:57.441Z,8.60
2022-10-24T02:11:57.059Z,8.40
2022-10-24T02:12:57.776Z,9.20
2022-10-24T02:13:57.041Z,8.90
2022-10-24T02:14:57.530Z,7.40
2022-10-24T02:15:57.285Z,8.50
2022-10-24T02:16:59.362Z,7.90
2022-10-24T02:17:57.064Z,8.00
2022-10-24T02:18:57.124Z,8.50
2022-10-24T02:19:57.044Z,8.60
2022-10-24T02:20:57.132Z,8.50
2022-10-24T02:21:57.300Z,8.20
2022-10-24T02:22:58.126Z,8.10
2022-10-24T02:23:57.042Z,8.50
2022-10-24T02:24:57.121Z,8.30
2022-10-24T02:25:56.963Z,8.60
2022-10-24T02:26:57.122Z,8.60
2022-10-24T02:27:57.281Z,8.30
2022-10-24T02:28:57.442Z,9.00
2022-10-24T02:29:57.290Z,8.10
2022-10-24T02:30:57.443Z,8.40
2022-10-24T02:31:57.031Z,7.80
2022-10-24T02:32:58.084Z,8.10
2022-10-24T02:33:56.972Z,8.40
2022-10-24T02:34:58.409Z,8.10
2022-10-24T02:35:56.732Z,8.50
2022-10-24T02:36:57.442Z,8.50
2022-10-24T02:37:56.963Z,8.50
2022-10-24T02:38:56.903Z,8.30
2022-10-24T02:39:56.962Z,9.40
2022-10-24T02:40:56.862Z,11.20
2022-10-24T02:41:56.962Z,10.10
2022-10-24T02:42:56.842Z,11.00
2022-10-24T02:43:56.722Z,11.00
2022-10-24T02:44:56.802Z,10.90
2022-10-24T02:45:56.963Z,10.60
2022-10-24T02:46:57.764Z,10.30
2022-10-24T02:47:56.723Z,10.30
2022-10-24T02:48:56.805Z,10.60
2022-10-24T02:49:56.732Z,10.30
2022-10-24T02:50:57.125Z,10.80
2022-10-24T02:51:56.492Z,10.80
2022-10-24T02:52:56.843Z,10.00
2022-10-24T02:53:56.723Z,9.80
2022-10-24T02:54:58.084Z,9.70
2022-10-24T02:55:56.962Z,9.60
2022-10-24T02:56:56.572Z,9.50
2022-10-24T02:57:56.723Z,9.30
2022-10-24T02:58:56.893Z,8.10
2022-10-24T02:59:56.413Z,9.50
2022-10-24T03:00:56.862Z,8.30
2022-10-24T03:01:56.704Z,8.90
2022-10-24T03:02:56.806Z,8.20
2022-10-24T03:03:56.643Z,8.60
2022-10-24T03:04:58.735Z,8.50
2022-10-24T03:05:56.644Z,8.10
2022-10-24T03:06:56.483Z,7.80
2022-10-24T03:07:56.644Z,7.80
2022-10-24T03:08:56.555Z,7.70
2022-10-24T03:09:56.405Z,6.30
2022-10-24T03:11:17.925Z,6.00
2022-10-24T03:11:56.644Z,6.30
2022-10-24T03:12:56.294Z,7.80
2022-10-24T03:13:56.404Z,7.60
2022-10-24T03:14:56.403Z,7.40
2022-10-24T03:15:56.643Z,7.30
2022-10-24T03:16:57.764Z,7.50
2022-10-24T03:17:56.324Z,7.80
2022-10-24T03:18:56.524Z,7.40
2022-10-24T03:19:56.643Z,7.10
2022-10-24T03:20:56.484Z,7.50
2022-10-24T03:21:56.324Z,7.70
2022-10-24T03:22:56.164Z,7.90
2022-10-24T03:23:56.148Z,7.80
2022-10-24T03:24:56.328Z,7.70
2022-10-24T03:25:56.323Z,7.60
2022-10-24T03:26:56.244Z,8.10
2022-10-24T03:27:56.326Z,7.70
2022-10-24T03:28:56.219Z,7.50
2022-10-24T03:29:56.324Z,7.60
2022-10-24T03:30:56.181Z,7.30
2022-10-24T03:31:56.096Z,7.20
2022-10-24T03:32:59.771Z,7.70
2022-10-24T03:33:56.003Z,7.60
2022-10-24T03:34:57.444Z,7.90
2022-10-24T03:35:55.924Z,7.20
2022-10-24T03:36:56.034Z,7.50
2022-10-24T03:37:55.903Z,7.40
2022-10-24T03:38:56.114Z,7.80
2022-10-24T03:39:56.033Z,7.50
2022-10-24T03:40:57.115Z,7.70
2022-10-24T03:41:55.824Z,7.40
2022-10-24T03:42:56.103Z,7.30
2022-10-24T03:43:56.004Z,8.10
2022-10-24T03:44:56.994Z,7.30
2022-10-24T03:45:55.865Z,7.90
2022-10-24T03:46:56.044Z,7.80
2022-10-24T03:47:55.769Z,8.10
2022-10-24T03:48:55.998Z,7.80
2022-10-24T03:49:56.184Z,7.00
2022-10-24T03:50:57.969Z,7.50
2022-10-24T03:51:55.714Z,7.20
2022-10-24T03:52:56.074Z,6.80
2022-10-24T03:53:56.047Z,7.30
2022-10-24T03:54:55.943Z,7.70
2022-10-24T03:55:55.765Z,7.30
2022-10-24T03:56:55.885Z,6.90
2022-10-24T03:57:55.853Z,7.80
2022-10-24T03:58:55.987Z,7.70
2022-10-24T03:59:55.871Z,7.50
2022-10-24T04:00:55.822Z,7.70
2022-10-24T04:01:55.633Z,7.80
2022-10-24T04:02:55.924Z,7.60
2022-10-24T04:03:56.205Z,7.50
2022-10-24T04:04:56.708Z,7.80
2022-10-24T04:05:55.766Z,7.60
2022-10-24T04:06:55.796Z,8.00
2022-10-24T04:07:55.565Z,8.40
2022-10-24T04:08:55.935Z,8.10
2022-10-24T04:09:56.173Z,8.70
2022-10-24T04:10:55.758Z,8.50
2022-10-24T04:11:55.645Z,8.20
2022-10-24T04:12:55.634Z,8.10
2022-10-24T04:13:55.596Z,8.00
2022-10-24T04:14:55.991Z,8.40
2022-10-24T04:15:55.407Z,8.70
2022-10-24T04:16:55.507Z,8.00
2022-10-24T04:17:55.555Z,8.20
2022-10-24T04:18:55.476Z,8.00
2022-10-24T04:19:55.335Z,8.30
2022-10-24T04:20:55.664Z,8.20
2022-10-24T04:21:56.038Z,8.90
2022-10-24T04:23:16.374Z,8.50
2022-10-24T04:23:56.528Z,9.20
2022-10-24T04:24:57.093Z,9.60
2022-10-24T04:25:55.914Z,8.70
2022-10-24T04:26:56.145Z,9.90
2022-10-24T04:27:55.225Z,8.90
2022-10-24T04:28:56.278Z,8.60
2022-10-24T04:29:55.232Z,8.60
2022-10-24T04:30:55.928Z,8.70
2022-10-24T04:31:55.341Z,8.70
2022-10-24T04:32:55.486Z,9.00
2022-10-24T04:33:55.146Z,8.70
2022-10-24T04:34:55.166Z,9.00
2022-10-24T04:35:55.115Z,8.90
2022-10-24T04:36:55.826Z,9.50
2022-10-24T04:37:55.177Z,9.80
2022-10-24T04:38:56.253Z,8.70
2022-10-24T04:39:55.165Z,9.50
2022-10-24T04:40:57.337Z,9.70
2022-10-24T04:41:55.126Z,9.50
2022-10-24T04:42:56.189Z,10.10
2022-10-24T04:43:55.103Z,10.30
2022-10-24T04:44:55.127Z,10.50
2022-10-24T04:45:54.976Z,9.40
2022-10-24T04:46:56.116Z,11.50
2022-10-24T04:47:55.557Z,14.90
2022-10-24T04:48:55.106Z,11.20
2022-10-24T04:49:55.194Z,10.70
2022-10-24T04:50:56.227Z,10.30
2022-10-24T04:51:55.586Z,9.90
2022-10-24T04:52:56.639Z,10.60
2022-10-24T04:53:55.602Z,10.90
2022-10-24T04:54:55.597Z,9.70
2022-10-24T04:55:55.498Z,9.50
2022-10-24T04:56:57.185Z,9.40
2022-10-24T04:57:56.037Z,9.40
2022-10-24T04:58:55.677Z,9.60
2022-10-24T04:59:55.506Z,8.90
2022-10-24T05:00:55.664Z,8.80
2022-10-24T05:01:55.518Z,8.80
2022-10-24T05:02:59.044Z,8.70
2022-10-24T05:03:55.874Z,9.20
2022-10-24T05:04:54.906Z,8.60
2022-10-24T05:05:55.568Z,9.30
2022-10-24T05:06:54.828Z,10.50
2022-10-24T05:07:55.357Z,9.90
2022-10-24T05:08:54.828Z,8.90
2022-10-24T05:09:55.347Z,8.20
2022-10-24T05:10:55.568Z,9.30
2022-10-24T05:11:54.628Z,9.30
2022-10-24T05:12:55.408Z,8.70
2022-10-24T05:13:54.732Z,8.80
2022-10-24T05:14:54.727Z,9.30
2022-10-24T05:15:54.568Z,9.00
2022-10-24T05:16:55.326Z,8.80
2022-10-24T05:17:54.568Z,8.60
2022-10-24T05:18:54.747Z,9.00
2022-10-24T05:19:54.520Z,8.40
2022-10-24T05:20:54.638Z,8.50
2022-10-24T05:21:54.498Z,8.50
2022-10-24T05:22:54.599Z,7.90
2022-10-24T05:23:54.457Z,8.70
2022-10-24T05:24:54.547Z,8.30
2022-10-24T05:25:54.438Z,8.80
2022-10-24T05:27:10.753Z,8.70
2022-10-24T05:27:55.018Z,9.10
2022-10-24T05:28:55.331Z,8.10
2022-10-24T05:29:55.048Z,8.10
2022-10-24T05:30:55.965Z,8.70
2022-10-24T05:31:54.367Z,7.80
2022-10-24T05:32:57.327Z,9.30
2022-10-24T05:33:54.347Z,9.50
2022-10-24T05:34:55.187Z,9.10
2022-10-24T05:35:54.948Z,9.80
2022-10-24T05:36:55.109Z,9.80
2022-10-24T05:37:54.958Z,10.30
2022-10-24T05:38:57.247Z,9.80
2022-10-24T05:39:54.924Z,8.70
2022-10-24T05:40:55.108Z,8.90
2022-10-24T05:41:55.424Z,8.80
2022-10-24T05:42:56.417Z,8.20
2022-10-24T05:43:54.847Z,9.20
2022-10-24T05:44:56.056Z,8.80
2022-10-24T05:45:54.878Z,9.40
2022-10-24T05:46:54.920Z,9.80
2022-10-24T05:47:54.870Z,8.50
2022-10-24T05:48:54.158Z,8.70
2022-10-24T05:49:54.878Z,9.10
2022-10-24T05:50:55.019Z,9.30
2022-10-24T05:51:54.789Z,9.10
2022-10-24T05:52:54.868Z,10.30
2022-10-24T05:53:54.699Z,12.20
2022-10-24T05:55:06.792Z,10.70
2022-10-24T05:55:55.937Z,10.40
2022-10-24T05:56:54.108Z,9.50
2022-10-24T05:57:54.712Z,9.80
2022-10-24T05:58:54.787Z,10.00
2022-10-24T05:59:54.649Z,9.70
2022-10-24T06:00:54.727Z,9.50
2022-10-24T06:01:54.110Z,9.80
2022-10-24T06:02:54.721Z,9.90
2022-10-24T06:03:53.930Z,9.50
2022-10-24T06:04:54.629Z,10.20
2022-10-24T06:05:54.550Z,10.00
2022-10-24T06:06:55.838Z,10.50
2022-10-24T06:07:54.801Z,12.20
2022-10-24T06:08:54.709Z,11.70
2022-10-24T06:09:56.229Z,11.20
2022-10-24T06:10:54.619Z,11.60
2022-10-24T06:11:53.859Z,10.90
2022-10-24T06:12:55.748Z,10.30
2022-10-24T06:13:54.611Z,10.70
2022-10-24T06:14:53.949Z,12.90
2022-10-24T06:15:54.449Z,15.10
2022-10-24T06:16:54.609Z,20.00
2022-10-24T06:17:55.100Z,19.50
2022-10-24T06:18:54.491Z,14.70
2022-10-24T06:19:54.621Z,12.80
2022-10-24T06:20:56.149Z,12.30
2022-10-24T06:21:54.430Z,12.80
2022-10-24T06:22:54.388Z,11.30
2022-10-24T06:23:54.309Z,11.20
2022-10-24T06:24:56.820Z,10.50
2022-10-24T06:25:54.878Z,9.90
2022-10-24T06:26:54.377Z,10.00
2022-10-24T06:27:54.333Z,10.60
2022-10-24T06:28:54.290Z,10.30
2022-10-24T06:29:54.190Z,10.20
2022-10-24T06:31:14.781Z,12.90
2022-10-24T06:31:54.239Z,12.40
2022-10-24T06:32:54.398Z,12.70
2022-10-24T06:33:54.219Z,18.70
2022-10-24T06:34:56.560Z,21.70
2022-10-24T06:35:54.162Z,16.90
2022-10-24T06:36:54.383Z,14.50
2022-10-24T06:37:54.627Z,13.10
2022-10-24T06:38:54.310Z,12.50
2022-10-24T06:39:54.148Z,18.10
2022-10-24T06:40:55.272Z,13.30
2022-10-24T06:41:54.052Z,13.20
2022-10-24T06:42:53.587Z,11.20
2022-10-24T06:43:54.069Z,12.20
2022-10-24T06:44:54.251Z,11.50
2022-10-24T06:45:54.064Z,10.40
2022-10-24T06:47:00.730Z,9.40
2022-10-24T06:47:54.461Z,9.60
2022-10-24T06:48:54.290Z,9.50
2022-10-24T06:49:54.003Z,9.90
2022-10-24T06:50:54.080Z,9.90
2022-10-24T06:51:53.990Z,10.20
2022-10-24T06:53:15.446Z,10.00
2022-10-24T06:53:53.891Z,10.60
2022-10-24T06:54:54.150Z,9.60
2022-10-24T06:55:54.092Z,10.50
2022-10-24T06:56:53.931Z,8.70
2022-10-24T06:57:55.100Z,9.60
2022-10-24T06:58:53.921Z,9.40
2022-10-24T06:59:53.914Z,13.40
2022-10-24T07:00:54.053Z,16.00
2022-10-24T07:01:54.103Z,15.40
2022-10-24T07:02:53.831Z,13.90
2022-10-24T07:03:53.917Z,12.20
2022-10-24T07:04:53.837Z,12.60
2022-10-24T07:05:53.902Z,10.20
2022-10-24T07:06:54.081Z,10.50
2022-10-24T07:07:53.920Z,9.60
2022-10-24T07:08:53.748Z,10.40
2022-10-24T07:09:54.779Z,11.40
2022-10-24T07:10:53.860Z,10.50
2022-10-24T07:11:53.817Z,10.90
2022-10-24T07:12:53.830Z,10.20
2022-10-24T07:13:56.654Z,10.30
2022-10-24T07:14:54.620Z,9.50
2022-10-24T07:15:53.831Z,9.50
2022-10-24T07:16:53.580Z,10.20
2022-10-24T07:17:53.591Z,9.90
2022-10-24T07:18:53.755Z,9.20
2022-10-24T07:19:53.670Z,9.50
2022-10-24T07:20:53.571Z,10.80
2022-10-24T07:21:53.581Z,11.20
2022-10-24T07:22:53.573Z,10.20
2022-10-24T07:23:53.651Z,10.20
2022-10-24T07:24:53.661Z,10.30
2022-10-24T07:26:14.619Z,10.00
2022-10-24T07:26:53.489Z,10.50
2022-10-24T07:27:53.587Z,10.60
2022-10-24T07:28:53.520Z,11.10
2022-10-24T07:29:53.550Z,10.60
2022-10-24T07:30:53.589Z,11.00
2022-10-24T07:32:14.471Z,10.70
2022-10-24T07:32:53.442Z,10.90
2022-10-24T07:33:53.421Z,10.50
2022-10-24T07:34:53.278Z,9.60
2022-10-24T07:35:53.440Z,9.90
2022-10-24T07:36:53.510Z,9.80
2022-10-24T07:37:54.381Z,9.80
2022-10-24T07:38:53.341Z,9.60
2022-10-24T07:39:52.771Z,10.60
2022-10-24T07:40:53.250Z,10.30
2022-10-24T07:41:53.521Z,9.70
2022-10-24T07:42:52.630Z,10.50
2022-10-24T07:43:53.271Z,10.10
2022-10-24T07:44:53.279Z,10.50
2022-10-24T07:45:53.382Z,10.40
2022-10-24T07:46:53.167Z,9.50
2022-10-24T07:47:52.620Z,10.10
2022-10-24T07:48:53.351Z,9.80
2022-10-24T07:49:53.349Z,10.20
2022-10-24T07:50:53.271Z,9.80
2022-10-24T07:51:53.090Z,9.80
2022-10-24T07:52:53.101Z,10.10
2022-10-24T07:53:53.180Z,10.00
2022-10-24T07:54:52.462Z,9.50
2022-10-24T07:55:54.222Z,9.90
2022-10-24T07:56:54.170Z,9.70
2022-10-24T07:57:53.121Z,9.40
2022-10-24T07:58:53.002Z,9.50
2022-10-24T07:59:53.172Z,9.60
2022-10-24T08:00:53.202Z,9.70
2022-10-24T08:01:54.218Z,10.50
2022-10-24T08:02:53.026Z,9.70
2022-10-24T08:03:53.104Z,9.70
2022-10-24T08:04:52.893Z,9.70
2022-10-24T08:05:53.091Z,10.10
2022-10-24T08:06:53.123Z,9.40
2022-10-24T08:07:56.230Z,9.40
2022-10-24T08:08:53.892Z,9.70
2022-10-24T08:09:53.032Z,9.80
2022-10-24T08:10:52.929Z,10.20
2022-10-24T08:11:52.233Z,9.30
2022-10-24T08:12:52.195Z,9.40
2022-10-24T08:13:52.241Z,9.70
2022-10-24T08:14:52.862Z,9.20
2022-10-24T08:15:52.950Z,10.40
2022-10-24T08:16:52.781Z,9.40
2022-10-24T08:18:16.065Z,9.10
2022-10-24T08:18:52.783Z,8.80
2022-10-24T08:19:52.954Z,9.20
2022-10-24T08:20:52.793Z,8.60
2022-10-24T08:21:52.783Z,8.40
2022-10-24T08:22:52.662Z,8.60
2022-10-24T08:23:52.962Z,9.10
2022-10-24T08:24:52.713Z,9.00
2022-10-24T08:25:52.892Z,9.00
2022-10-24T08:26:52.693Z,8.10
2022-10-24T08:27:52.713Z,8.70
2022-10-24T08:28:52.643Z,8.20
2022-10-24T08:29:53.023Z,8.00
2022-10-24T08:30:52.629Z,8.10
2022-10-24T08:31:52.803Z,8.00
2022-10-24T08:32:52.581Z,7.80
2022-10-24T08:33:52.633Z,7.70
2022-10-24T08:34:52.544Z,8.30
2022-10-24T08:35:52.024Z,8.00
2022-10-24T08:36:52.583Z,8.10
2022-10-24T08:37:51.993Z,7.70
2022-10-24T08:38:52.574Z,8.00
2022-10-24T08:39:52.614Z,7.40
2022-10-24T08:40:52.482Z,7.50
2022-10-24T08:41:57.922Z,7.50
2022-10-24T08:42:53.271Z,7.40
2022-10-24T08:43:52.473Z,8.10
2022-10-24T08:44:52.400Z,8.00
2022-10-24T08:45:52.660Z,7.70
2022-10-24T08:46:52.391Z,6.90
2022-10-24T08:47:51.943Z,8.80
2022-10-24T08:48:52.396Z,8.20
2022-10-24T08:49:52.483Z,8.00
2022-10-24T08:50:52.304Z,8.60
2022-10-24T08:51:54.665Z,7.70
2022-10-24T08:52:52.284Z,8.40
2022-10-24T08:53:51.756Z,8.30
2022-10-24T08:54:52.352Z,8.10
2022-10-24T08:55:52.474Z,8.10
2022-10-24T08:56:52.224Z,8.20
2022-10-24T08:58:14.375Z,8.30
2022-10-24T08:58:52.262Z,8.10
2022-10-24T08:59:51.645Z,7.60
2022-10-24T09:00:52.365Z,8.10
2022-10-24T09:02:13.889Z,7.90
2022-10-24T09:02:52.314Z,8.30
2022-10-24T09:03:56.478Z,8.30
2022-10-24T09:04:53.261Z,8.30
2022-10-24T09:05:52.395Z,8.50
2022-10-24T09:06:52.145Z,8.10
2022-10-24T09:07:52.354Z,8.20
2022-10-24T09:08:52.084Z,7.90
2022-10-24T09:10:12.494Z,8.10
2022-10-24T09:10:52.189Z,8.90
2022-10-24T09:11:52.235Z,8.10
2022-10-24T09:12:52.075Z,9.00
2022-10-24T09:13:52.065Z,8.40
2022-10-24T09:14:51.357Z,8.50
2022-10-24T09:15:51.435Z,8.10
2022-10-24T09:16:51.325Z,8.50
2022-10-24T09:17:51.370Z,8.50
2022-10-24T09:18:51.383Z,8.70
2022-10-24T09:19:52.014Z,8.70
2022-10-24T09:20:52.010Z,8.80
2022-10-24T09:21:53.187Z,8.60
2022-10-24T09:22:51.246Z,8.20
2022-10-24T09:23:51.407Z,8.70
2022-10-24T09:24:51.916Z,9.20
2022-10-24T09:25:56.465Z,8.50
2022-10-24T09:26:51.205Z,10.40
2022-10-24T09:27:51.867Z,9.20
2022-10-24T09:28:52.175Z,8.30
2022-10-24T09:29:51.817Z,8.50
2022-10-24T09:30:51.970Z,8.80
2022-10-24T09:31:51.537Z,8.60
2022-10-24T09:32:51.549Z,8.60
2022-10-24T09:33:52.478Z,8.70
2022-10-24T09:34:51.756Z,8.20
2022-10-24T09:35:51.776Z,9.10
2022-10-24T09:36:51.457Z,8.50
2022-10-24T09:37:51.398Z,8.80
2022-10-24T09:38:51.676Z,8.50
2022-10-24T09:39:51.197Z,8.20
2022-10-24T09:40:51.585Z,9.10
2022-10-24T09:41:51.136Z,8.70
2022-10-24T09:42:51.600Z,8.60
2022-10-24T09:43:51.746Z,8.50
2022-10-24T09:44:51.587Z,8.10
2022-10-24T09:45:51.257Z,8.60
2022-10-24T09:46:51.577Z,8.50
2022-10-24T09:47:52.058Z,8.30
2022-10-24T09:48:51.527Z,8.40
2022-10-24T09:49:53.817Z,7.70
2022-10-24T09:50:50.861Z,9.20
2022-10-24T09:51:51.855Z,8.00
2022-10-24T09:52:51.507Z,7.90
2022-10-24T09:53:50.967Z,8.00
2022-10-24T09:54:51.744Z,8.60
2022-10-24T09:56:13.649Z,8.30
2022-10-24T09:56:54.390Z,7.40
2022-10-24T09:57:51.768Z,7.80
2022-10-24T09:58:51.448Z,7.90
2022-10-24T09:59:52.967Z,7.20
2022-10-24T10:00:50.762Z,8.40
2022-10-24T10:01:53.753Z,7.30
2022-10-24T10:02:51.357Z,7.30
2022-10-24T10:03:50.788Z,7.70
2022-10-24T10:04:51.358Z,7.30
2022-10-24T10:05:50.747Z,8.00
2022-10-24T10:06:51.277Z,8.40
2022-10-24T10:07:50.776Z,6.90
2022-10-24T10:08:51.268Z,7.20
2022-10-24T10:09:54.119Z,7.60
2022-10-24T10:10:52.229Z,7.80
2022-10-24T10:12:02.037Z,8.50
2022-10-24T10:12:52.238Z,8.70
2022-10-24T10:13:50.595Z,8.90
2022-10-24T10:14:51.226Z,8.70
2022-10-24T10:15:51.428Z,9.40
2022-10-24T10:16:50.509Z,9.80
2022-10-24T10:17:50.959Z,9.10
2022-10-24T10:18:50.678Z,9.50
2022-10-24T10:19:51.830Z,10.30
2022-10-24T10:20:50.451Z,9.50
2022-10-24T10:21:51.171Z,9.70
2022-10-24T10:22:51.820Z,9.50
2022-10-24T10:23:51.582Z,9.90
2022-10-24T10:24:51.031Z,9.60
2022-10-24T10:25:54.191Z,9.40
2022-10-24T10:26:50.719Z,10.70
2022-10-24T10:27:51.983Z,11.30
2022-10-24T10:28:53.211Z,9.50
2022-10-24T10:29:50.658Z,10.60
2022-10-24T10:31:12.488Z,10.80
2022-10-24T10:31:50.390Z,9.70
2022-10-24T10:32:50.420Z,10.60
2022-10-24T10:33:50.301Z,11.00
2022-10-24T10:34:50.412Z,10.60
2022-10-24T10:35:50.250Z,10.20
2022-10-24T10:36:51.100Z,10.20
2022-10-24T10:37:50.690Z,10.60
2022-10-24T10:38:50.289Z,10.20
2022-10-24T10:39:50.249Z,9.80
2022-10-24T10:40:51.330Z,9.50
2022-10-24T10:41:50.204Z,9.70
2022-10-24T10:42:50.341Z,9.40
2022-10-24T10:43:50.800Z,9.30
2022-10-24T10:44:50.199Z,9.10
2022-10-24T10:45:50.172Z,9.10
2022-10-24T10:46:50.946Z,9.40
2022-10-24T10:47:50.081Z,9.30
2022-10-24T10:48:50.750Z,8.50
2022-10-24T10:49:50.061Z,10.00
2022-10-24T10:50:50.223Z,8.90
2022-10-24T10:51:50.794Z,9.30
2022-10-24T10:52:50.860Z,9.20
2022-10-24T10:53:50.723Z,9.30
2022-10-24T10:54:50.702Z,9.00
2022-10-24T10:55:52.711Z,9.60
2022-10-24T10:56:52.851Z,8.20
2022-10-24T10:57:50.922Z,9.10
2022-10-24T10:58:50.810Z,8.60
2022-10-24T10:59:50.624Z,9.30
2022-10-24T11:00:50.717Z,9.60
2022-10-24T11:01:50.603Z,9.80
2022-10-24T11:02:52.826Z,9.90
2022-10-24T11:03:49.942Z,9.50
2022-10-24T11:05:11.612Z,10.00
2022-10-24T11:05:50.472Z,10.60
2022-10-24T11:06:50.673Z,9.30
2022-10-24T11:07:50.482Z,9.80
2022-10-24T11:08:50.647Z,9.80
2022-10-24T11:09:50.640Z,10.20
2022-10-24T11:10:51.057Z,9.50
2022-10-24T11:11:50.402Z,8.50
2022-10-24T11:12:50.561Z,9.80
2022-10-24T11:13:50.424Z,9.80
2022-10-24T11:14:50.531Z,9.80
2022-10-24T11:15:50.563Z,9.70
2022-10-24T11:16:50.471Z,9.90
2022-10-24T11:17:50.384Z,10.10
2022-10-24T11:18:50.494Z,9.70
2022-10-24T11:19:50.330Z,9.70
2022-10-24T11:20:50.405Z,10.30
2022-10-24T11:21:50.464Z,9.90
2022-10-24T11:22:50.511Z,10.00
2022-10-24T11:23:50.255Z,9.60
2022-10-24T11:24:50.291Z,9.50
2022-10-24T11:25:50.272Z,9.20
2022-10-24T11:26:50.416Z,9.30
2022-10-24T11:27:50.402Z,9.70
2022-10-24T11:28:52.453Z,9.20
2022-10-24T11:29:50.166Z,9.40
2022-10-24T11:30:50.236Z,9.20
2022-10-24T11:31:49.533Z,8.90
2022-10-24T11:33:11.235Z,9.30
2022-10-24T11:33:50.170Z,9.70
2022-10-24T11:34:50.323Z,8.80
2022-10-24T11:35:50.087Z,9.10
2022-10-24T11:36:52.114Z,7.30
2022-10-24T11:37:51.026Z,8.40
2022-10-24T11:38:50.409Z,10.00
2022-10-24T11:39:50.086Z,9.50
2022-10-24T11:40:51.669Z,9.40
2022-10-24T11:41:50.001Z,9.20
2022-10-24T11:42:52.415Z,9.10
2022-10-24T11:43:50.005Z,7.70
2022-10-24T11:44:50.235Z,8.80
2022-10-24T11:45:49.299Z,7.40
2022-10-24T11:46:50.146Z,8.30
2022-10-24T11:47:49.915Z,7.50
2022-10-24T11:48:49.347Z,7.80
2022-10-24T11:49:49.915Z,8.70
2022-10-24T11:50:50.256Z,7.20
2022-10-24T11:51:49.923Z,7.90
2022-10-24T11:52:50.076Z,7.80
2022-10-24T11:53:49.847Z,7.80
2022-10-24T11:54:50.236Z,7.40
2022-10-24T11:55:49.916Z,8.10
2022-10-24T11:56:50.148Z,7.80
2022-10-24T11:57:49.878Z,7.90
2022-10-24T11:58:49.318Z,6.70
2022-10-24T11:59:50.321Z,7.80
2022-10-24T12:00:50.894Z,8.60
2022-10-24T12:01:49.746Z,7.10
2022-10-24T12:02:50.114Z,7.50
2022-10-24T12:03:49.071Z,5.10
2022-10-24T12:04:49.208Z,5.50
2022-10-24T12:05:49.779Z,8.00
2022-10-24T12:07:11.987Z,8.70
2022-10-24T12:07:49.667Z,8.40
2022-10-24T12:08:49.988Z,8.10
2022-10-24T12:09:49.686Z,7.40
2022-10-24T12:10:49.749Z,5.80
2022-10-24T12:11:48.987Z,7.50
2022-10-24T12:12:49.676Z,7.70
2022-10-24T12:13:49.629Z,8.10
2022-10-24T12:14:49.255Z,8.40
2022-10-24T12:15:49.600Z,8.00
2022-10-24T12:16:49.588Z,7.60
2022-10-24T12:17:49.286Z,8.30
2022-10-24T12:18:50.201Z,8.90
2022-10-24T12:19:48.880Z,7.90
2022-10-24T12:20:49.049Z,6.40
2022-10-24T12:21:49.520Z,7.10
2022-10-24T12:22:49.600Z,8.00
2022-10-24T12:23:49.449Z,7.00
2022-10-24T12:24:49.527Z,7.00
2022-10-24T12:25:49.440Z,7.40
2022-10-24T12:26:50.633Z,7.20
2022-10-24T12:27:49.429Z,7.60
2022-10-24T12:28:49.871Z,7.30
2022-10-24T12:29:49.377Z,7.30
2022-10-24T12:30:49.553Z,7.20
2022-10-24T12:31:49.368Z,7.20
2022-10-24T12:32:49.891Z,6.90
2022-10-24T12:33:49.369Z,7.10
2022-10-24T12:34:52.691Z,6.90
2022-10-24T12:35:49.359Z,6.90
2022-10-24T12:36:48.750Z,6.00
2022-10-24T12:37:49.299Z,7.10
2022-10-24T12:38:49.602Z,7.20
2022-10-24T12:39:49.271Z,6.60
2022-10-24T12:40:49.361Z,6.90
2022-10-24T12:41:49.181Z,7.20
2022-10-24T12:42:49.361Z,7.00
2022-10-24T12:43:49.231Z,6.90
2022-10-24T12:44:50.333Z,6.10
2022-10-24T12:45:49.214Z,7.00
2022-10-24T12:46:49.211Z,7.00
2022-10-24T12:47:48.504Z,6.90
2022-10-24T12:48:48.563Z,6.60
2022-10-24T12:49:51.269Z,7.80
2022-10-24T12:50:49.172Z,7.60
2022-10-24T12:51:49.184Z,7.40
2022-10-24T12:52:49.165Z,7.20
2022-10-24T12:53:48.519Z,7.90
2022-10-24T12:54:49.032Z,7.80
2022-10-24T12:55:49.212Z,7.10
2022-10-24T12:56:48.372Z,6.50
2022-10-24T12:59:03.162Z,6.40
2022-10-24T12:59:59.762Z,6.10
2022-10-24T13:00:59.522Z,5.90
2022-10-24T13:02:03.449Z,6.40
2022-10-24T13:03:02.531Z,6.90
2022-10-24T13:03:59.114Z,8.50
2022-10-24T13:04:59.683Z,7.50
2022-10-24T13:05:59.841Z,7.50
2022-10-24T13:06:59.673Z,7.70
2022-10-24T13:08:01.913Z,8.50
2022-10-24T13:08:59.666Z,8.70
2022-10-24T13:10:01.958Z,8.80
2022-10-24T13:10:59.695Z,8.40
2022-10-24T13:11:59.064Z,6.10
2022-10-24T13:12:59.652Z,7.80
2022-10-24T13:14:00.674Z,14.10
2022-10-24T13:14:58.909Z,9.10